RPi & Temperatures at JO21ut

Last graph updates: Tuesday 02 June 2020 22:56 CEST

Sunrise: 05:20 & Sunset: 21:49 The Sun is currently not visible. [-8.61 degrees] and 151757432 Km from the Earth
Moonrise: 17:25 & Moonset: 3:59 Waxing Gibbous Moon The Moon is 364318 Km from the Earth
Find here more details on MARS.

23:01:33 up 4 days, 23:30, 0 users, load average: 1.18, 1.10, 0.93
Current CPU frequency is: 1000 Mhz
Current GPU temperature: 30.938°C
Current inside temperature is 23.1°C with a humidity of 45.1%
Second inside temperature is 23.8°C with a pressure of 1008.59 Hpa (29.55 inHg) and an uncorrected altitude of 39.37 m
ds18b20 now showing 22.9°C

All the sensors I use, DHT22 | BMP085 | MPU6050 | BH1750FVI | MMA7455 | HMC5883L | MPL3115A2 | DS1307 | HTU21 | AM2321 | DS3231 | INA219 | LM75A , and it's current readout can be viewed here please be patient as it needs to read all sensors data. The page loads after about 10 seconds. In our forum more details can be found such as the used software/sources. Feel free to add yours also..


Pressure BMP085
Pressure BMP085
Pressure BMP085
Pressure BMP085
PI CPU Temp
Inet Volkel temp
Inside temp BMP085
Humidity BMP085
PI CPU Temp
Inet Volkel temp
Inside temp BMP085
Humidity BMP085
PI CPU Temp
Inet Volkel temp
Inside temp BMP085
Humidity BMP085
PI CPU Temp
Inet Volkel temp
Inside temp BMP085
Humidity BMP085
PI CPU Temp
Inet Volkel temp
Inside temp BMP085
Humidity BMP085
Inside light BH1750FV
Inside light BH1750FV
Inside light BH1750FV
Inside light BH1750FV
Inside light BH1750FV
Inside light BH1750FV
Sunlight hours
 

Sun & Moon position graph 
Created with jpgraph 4.2.11


Wijchen weather

Weer Widget
ScreenSaver yr.no

Sun Moon Earth


EHEH 022055Z AUTO 29003KT 270V340 9999 OVC190 18/10 Q1012 BLU EHEH 022055Z AUTO 29003KT 270V340 9999 OVC190 18/10 Q1012 BLU EHEH 022055Z AUTO 29003KT 270V340 9999 OVC190 18/10 Q1012 BLU

Weather data from Volkel [NL] EHVK


7 minutes ago, at 20:55 UTC, the wind was calm in Volkel [EHVK], Netherlands. The temperature was 18 °C (64 °F) with a dewpoint of 10 °C (50 °F), and the pressure was 1,012 hPa (29.88 inHg). The relative humidity was 59.5%. There were overcast at a height of 5791 meter (19000 feet). The visibility was >10 kilometers (>6.2 miles).




View code:

Contact me  |  My Raspberry PI forum